createdAt,value
2019-02-27T00:02:22.717Z,101326.22
2019-02-27T00:04:47.620Z,101322.32
2019-02-27T00:07:15.869Z,101324.31
2019-02-27T00:09:44.615Z,101318.73
2019-02-27T00:12:12.193Z,101318.70
2019-02-27T00:14:42.243Z,101314.52
2019-02-27T00:17:17.748Z,101315.79
2019-02-27T00:19:44.252Z,101316.58
2019-02-27T00:22:11.301Z,101321.19
2019-02-27T00:24:38.273Z,101313.97
2019-02-27T00:27:06.715Z,101308.52
2019-02-27T00:29:33.725Z,101302.60
2019-02-27T00:32:00.979Z,101308.47
2019-02-27T00:34:28.278Z,101297.81
2019-02-27T00:36:55.790Z,101296.06
2019-02-27T00:39:22.870Z,101295.58
2019-02-27T00:41:49.827Z,101301.47
2019-02-27T00:44:16.764Z,101308.16
2019-02-27T00:46:46.102Z,101298.31
2019-02-27T00:49:12.434Z,101299.77
2019-02-27T00:51:39.763Z,101292.29
2019-02-27T00:54:09.779Z,101290.25
2019-02-27T00:56:36.728Z,101287.36
2019-02-27T00:59:04.051Z,101289.38
2019-02-27T01:01:30.994Z,101286.69
2019-02-27T01:04:01.052Z,101283.59
2019-02-27T01:06:26.682Z,101283.57
2019-02-27T01:08:53.976Z,101273.76
2019-02-27T01:11:21.466Z,101277.02
2019-02-27T01:13:48.447Z,101278.21
2019-02-27T01:16:17.252Z,101282.85
2019-02-27T01:18:44.316Z,101276.48
2019-02-27T01:24:02.447Z,101270.08
2019-02-27T01:26:31.524Z,101277.16
2019-02-27T01:28:59.024Z,101279.59
2019-02-27T01:31:26.000Z,101278.18
2019-02-27T01:33:53.405Z,101276.86
2019-02-27T01:36:21.801Z,101274.91
2019-02-27T01:38:49.299Z,101273.90
2019-02-27T01:41:16.369Z,101269.61
2019-02-27T01:43:46.923Z,101266.55
2019-02-27T01:46:13.929Z,101261.38
2019-02-27T01:48:43.706Z,101255.79
2019-02-27T01:51:11.868Z,101255.27
2019-02-27T01:53:40.472Z,101244.47
2019-02-27T01:56:08.409Z,101245.18
2019-02-27T01:58:36.570Z,101236.70
2019-02-27T02:01:03.859Z,101239.56
2019-02-27T02:03:34.416Z,101240.73
2019-02-27T02:06:04.365Z,101244.90
2019-02-27T02:08:34.460Z,101246.23
2019-02-27T02:11:02.126Z,101243.33
2019-02-27T02:13:30.573Z,101246.50
2019-02-27T02:15:58.180Z,101243.14
2019-02-27T02:18:28.489Z,101243.14
2019-02-27T02:20:58.155Z,101241.41
2019-02-27T02:23:24.204Z,101241.34
2019-02-27T02:25:51.595Z,101232.36
2019-02-27T02:28:20.206Z,101233.63
2019-02-27T02:30:47.288Z,101229.96
2019-02-27T02:33:14.783Z,101235.61
2019-02-27T02:35:46.843Z,101232.41
2019-02-27T02:38:13.718Z,101229.51
2019-02-27T02:40:40.860Z,101225.71
2019-02-27T02:43:08.200Z,101223.18
2019-02-27T02:45:35.738Z,101222.00
2019-02-27T02:48:02.763Z,101220.83
2019-02-27T02:50:30.093Z,101217.44
2019-02-27T02:52:57.206Z,101211.14
2019-02-27T02:55:24.701Z,101215.00
2019-02-27T02:57:53.323Z,101208.92
2019-02-27T03:02:57.489Z,101202.36
2019-02-27T03:05:25.285Z,101202.27
2019-02-27T03:07:52.403Z,101194.30
2019-02-27T03:10:19.621Z,101188.78
2019-02-27T03:12:52.592Z,101179.81
2019-02-27T03:15:19.594Z,101185.52
2019-02-27T03:17:46.658Z,101183.23
2019-02-27T03:20:16.782Z,101180.48
2019-02-27T03:22:42.472Z,101177.16
2019-02-27T03:25:09.451Z,101179.00
2019-02-27T03:27:36.395Z,101176.88
2019-02-27T03:30:03.419Z,101174.78
2019-02-27T03:32:41.189Z,101170.52
2019-02-27T03:35:01.322Z,101166.23
2019-02-27T03:37:28.329Z,101162.32
2019-02-27T03:39:55.380Z,101161.98
2019-02-27T03:42:22.339Z,101168.70
2019-02-27T03:44:49.356Z,101167.80
2019-02-27T03:47:17.096Z,101168.14
2019-02-27T03:49:52.397Z,101162.94
2019-02-27T03:52:20.684Z,101166.60
2019-02-27T03:54:44.958Z,101169.56
2019-02-27T03:57:11.862Z,101163.11
2019-02-27T03:59:42.471Z,101161.32
2019-02-27T04:02:07.566Z,101157.83
2019-02-27T04:04:34.866Z,101164.05
2019-02-27T04:07:04.398Z,101160.72
2019-02-27T04:09:31.417Z,101157.00
2019-02-27T04:11:58.747Z,101161.98
2019-02-27T04:14:26.231Z,101161.45
2019-02-27T04:16:54.848Z,101160.13
2019-02-27T04:19:21.818Z,101151.62
2019-02-27T04:21:48.813Z,101152.78
2019-02-27T04:24:15.851Z,101150.95
2019-02-27T04:26:42.875Z,101148.42
2019-02-27T04:29:10.162Z,101156.80
2019-02-27T04:31:37.161Z,101152.64
2019-02-27T04:34:05.866Z,101165.64
2019-02-27T04:36:42.184Z,101165.33
2019-02-27T04:41:44.456Z,101171.08
2019-02-27T04:44:11.435Z,101170.89
2019-02-27T04:46:38.403Z,101173.78
2019-02-27T04:49:06.215Z,101180.56
2019-02-27T04:51:48.045Z,101179.77
2019-02-27T04:54:15.316Z,101178.94
2019-02-27T04:56:42.302Z,101179.08
2019-02-27T04:59:09.557Z,101178.14
2019-02-27T05:01:37.338Z,101179.40
2019-02-27T05:04:04.767Z,101175.17
2019-02-27T05:06:31.782Z,101175.14
2019-02-27T05:09:00.196Z,101173.63
2019-02-27T05:11:28.610Z,101178.50
2019-02-27T05:13:55.556Z,101176.53
2019-02-27T05:16:22.903Z,101175.84
2019-02-27T05:18:50.263Z,101171.69
2019-02-27T05:21:19.237Z,101173.03
2019-02-27T05:23:46.685Z,101176.02
2019-02-27T05:26:13.654Z,101174.72
2019-02-27T05:28:40.610Z,101172.81
2019-02-27T05:31:07.486Z,101171.18
2019-02-27T05:33:36.505Z,101175.17
2019-02-27T05:36:03.722Z,101175.14
2019-02-27T05:38:33.017Z,101184.12
2019-02-27T05:41:00.596Z,101184.28
2019-02-27T05:43:27.899Z,101178.47
2019-02-27T05:45:54.842Z,101178.50
2019-02-27T05:48:22.038Z,101180.59
2019-02-27T05:50:51.927Z,101181.47
2019-02-27T05:53:22.127Z,101180.67
2019-02-27T05:55:47.939Z,101174.44
2019-02-27T05:58:16.390Z,101173.17
2019-02-27T06:00:44.395Z,101174.80
2019-02-27T06:03:11.421Z,101180.63
2019-02-27T06:05:38.686Z,101181.97
2019-02-27T06:08:05.998Z,101175.66
2019-02-27T06:10:33.304Z,101176.02
2019-02-27T06:13:00.257Z,101171.83
2019-02-27T06:15:28.604Z,101174.69
2019-02-27T06:17:56.302Z,101168.38
2019-02-27T06:20:23.271Z,101168.38
2019-02-27T06:22:50.528Z,101159.57
2019-02-27T06:25:21.681Z,101164.47
2019-02-27T06:27:46.338Z,101159.34
2019-02-27T06:30:13.600Z,101157.37
2019-02-27T06:32:40.787Z,101157.88
2019-02-27T06:35:08.029Z,101151.56
2019-02-27T06:37:35.306Z,101145.14
2019-02-27T06:40:04.761Z,101143.80
2019-02-27T06:42:31.221Z,101140.77
2019-02-27T06:44:58.294Z,101139.11
2019-02-27T06:47:25.566Z,101140.92
2019-02-27T06:49:52.565Z,101143.52
2019-02-27T06:52:19.544Z,101144.78
2019-02-27T06:54:46.833Z,101138.61
2019-02-27T06:57:13.906Z,101135.72
2019-02-27T07:02:19.107Z,101146.45
2019-02-27T07:04:44.994Z,101137.28
2019-02-27T07:07:12.033Z,101136.66
2019-02-27T07:09:39.011Z,101139.74
2019-02-27T07:12:07.255Z,101129.06
2019-02-27T07:14:36.492Z,101124.45
2019-02-27T07:17:03.401Z,101125.64
2019-02-27T07:19:30.332Z,101123.12
2019-02-27T07:21:57.270Z,101125.70
2019-02-27T07:24:37.220Z,101121.77
2019-02-27T07:27:04.415Z,101117.03
2019-02-27T07:29:31.401Z,101122.20
2019-02-27T07:32:00.032Z,101120.28
2019-02-27T07:34:27.535Z,101128.66
2019-02-27T07:36:54.790Z,101126.08
2019-02-27T07:39:21.945Z,101129.21
2019-02-27T07:41:49.229Z,101127.27
2019-02-27T07:44:16.557Z,101123.75
2019-02-27T07:46:45.225Z,101120.56
2019-02-27T07:49:12.447Z,101120.39
2019-02-27T07:51:39.429Z,101116.86
2019-02-27T07:54:06.830Z,101118.41
2019-02-27T07:56:34.296Z,101110.52
2019-02-27T07:59:01.271Z,101114.05
2019-02-27T08:01:28.264Z,101108.64
2019-02-27T08:03:57.540Z,101111.22
2019-02-27T08:06:24.757Z,101111.64
2019-02-27T08:08:51.741Z,101116.36
2019-02-27T08:11:19.048Z,101109.65
2019-02-27T08:13:45.940Z,101110.17
2019-02-27T08:16:12.943Z,101104.30
2019-02-27T08:18:39.921Z,101109.86
2019-02-27T08:21:06.949Z,101109.45
2019-02-27T08:23:33.940Z,101106.90
2019-02-27T08:26:04.733Z,101108.19
2019-02-27T08:28:30.126Z,101104.37
2019-02-27T08:30:57.107Z,101100.07
2019-02-27T08:33:26.299Z,101103.03
2019-02-27T08:35:53.580Z,101097.59
2019-02-27T08:38:23.652Z,101098.53
2019-02-27T08:40:50.770Z,101104.89
2019-02-27T08:43:18.185Z,101098.55
2019-02-27T08:45:45.090Z,101097.20
2019-02-27T08:48:12.091Z,101093.92
2019-02-27T08:50:39.372Z,101085.95
2019-02-27T08:53:06.468Z,101086.86
2019-02-27T08:55:33.411Z,101083.05
2019-02-27T08:58:00.617Z,101075.44
2019-02-27T09:00:27.630Z,101075.05
2019-02-27T09:02:55.700Z,101071.28
2019-02-27T09:05:23.395Z,101065.40
2019-02-27T09:07:50.684Z,101063.27
2019-02-27T09:10:17.924Z,101058.19
2019-02-27T09:12:45.443Z,101055.27
2019-02-27T09:15:13.838Z,101047.67
2019-02-27T09:17:40.801Z,101049.38
2019-02-27T09:20:07.892Z,101038.38
2019-02-27T09:22:37.465Z,101043.47
2019-02-27T09:25:05.663Z,101043.89
2019-02-27T09:27:32.999Z,101042.23
2019-02-27T09:30:02.742Z,101035.88
2019-02-27T09:32:29.927Z,101036.33
2019-02-27T09:34:59.658Z,101037.60
2019-02-27T09:37:26.324Z,101036.75
2019-02-27T09:39:53.317Z,101024.88
2019-02-27T09:42:20.308Z,101023.19
2019-02-27T09:44:47.415Z,101023.19
2019-02-27T09:47:14.840Z,101021.91
2019-02-27T09:49:41.796Z,101016.41
2019-02-27T09:52:09.782Z,101008.34
2019-02-27T09:54:36.971Z,101004.06
2019-02-27T09:57:04.167Z,100996.86
2019-02-27T09:59:31.229Z,101003.23
2019-02-27T10:01:58.493Z,100994.30
2019-02-27T10:04:28.950Z,100990.47
2019-02-27T10:06:54.669Z,100990.91
2019-02-27T10:09:21.716Z,100990.89
2019-02-27T10:11:48.689Z,100982.37
2019-02-27T10:14:16.429Z,100979.84
2019-02-27T10:16:44.367Z,100979.83
2019-02-27T10:19:11.644Z,100979.41
2019-02-27T10:21:44.514Z,100980.66
2019-02-27T10:24:10.754Z,100986.20
2019-02-27T10:26:37.765Z,100982.34
2019-02-27T10:29:04.841Z,100973.83
2019-02-27T10:31:33.444Z,100979.77
2019-02-27T10:34:00.529Z,100973.78
2019-02-27T10:36:27.842Z,100974.23
2019-02-27T10:38:55.091Z,100964.84
2019-02-27T10:41:22.105Z,100958.48
2019-02-27T10:43:53.983Z,100961.02
2019-02-27T10:46:23.661Z,100950.81
2019-02-27T10:48:51.791Z,100945.71
2019-02-27T10:51:18.959Z,100938.91
2019-02-27T10:53:46.281Z,100934.65
2019-02-27T10:56:13.324Z,100939.70
2019-02-27T10:58:40.565Z,100928.61
2019-02-27T11:01:07.835Z,100927.72
2019-02-27T11:03:36.069Z,100924.31
2019-02-27T11:06:03.094Z,100925.55
2019-02-27T11:08:30.375Z,100914.46
2019-02-27T11:10:58.516Z,100900.38
2019-02-27T11:13:25.457Z,100907.58
2019-02-27T11:15:54.034Z,100902.45
2019-02-27T11:18:21.027Z,100901.64
2019-02-27T11:20:48.075Z,100897.00
2019-02-27T11:23:15.850Z,100893.61
2019-02-27T11:25:45.199Z,100890.21
2019-02-27T11:28:12.062Z,100878.30
2019-02-27T11:30:39.362Z,100877.45
2019-02-27T11:33:06.464Z,100862.98
2019-02-27T11:35:36.247Z,100866.78
2019-02-27T11:38:14.196Z,100860.70
2019-02-27T11:41:19.562Z,100856.75
2019-02-27T11:45:23.997Z,100850.29
2019-02-27T11:46:44.839Z,100848.88
2019-02-27T11:51:32.346Z,100843.56
2019-02-27T11:53:59.841Z,100835.78
2019-02-27T11:56:27.267Z,100833.58
2019-02-27T11:59:12.896Z,100825.83
2019-02-27T12:01:37.893Z,100828.78
2019-02-27T12:04:08.206Z,100827.88
2019-02-27T12:06:54.330Z,100823.58
2019-02-27T12:09:36.740Z,100817.53
2019-02-27T12:12:22.505Z,100806.78
2019-02-27T12:15:06.750Z,100811.41
2019-02-27T12:17:33.294Z,100800.27
2019-02-27T12:20:00.271Z,100792.57
2019-02-27T12:22:27.390Z,100788.78
2019-02-27T12:24:58.238Z,100787.59
2019-02-27T12:27:48.730Z,100784.60
2019-02-27T12:30:07.785Z,100783.32
2019-02-27T12:32:41.583Z,100782.48
2019-02-27T12:35:10.990Z,100768.85
2019-02-27T12:37:38.526Z,100773.05
2019-02-27T12:40:05.912Z,100765.34
2019-02-27T12:42:37.369Z,100769.16
2019-02-27T12:45:06.355Z,100766.55
2019-02-27T12:47:41.534Z,100758.08
2019-02-27T12:50:06.950Z,100754.20
2019-02-27T12:52:34.215Z,100749.45
2019-02-27T12:55:01.780Z,100743.03
2019-02-27T12:57:31.233Z,100746.42
2019-02-27T12:59:58.273Z,100737.87
2019-02-27T13:02:35.227Z,100737.85
2019-02-27T13:04:57.875Z,100731.02
2019-02-27T13:07:24.419Z,100733.70
2019-02-27T13:15:51.744Z,100725.32
2019-02-27T13:20:54.511Z,100716.90
2019-02-27T13:23:21.824Z,100718.43
2019-02-27T13:25:51.486Z,100716.98
2019-02-27T13:28:18.505Z,100712.67
2019-02-27T13:30:45.477Z,100701.95
2019-02-27T13:33:13.604Z,100697.20
2019-02-27T13:35:43.318Z,100697.12
2019-02-27T13:38:10.374Z,100702.22
2019-02-27T13:40:39.109Z,100692.73
2019-02-27T13:43:06.115Z,100698.23
2019-02-27T13:45:33.112Z,100694.34
2019-02-27T13:48:04.955Z,100684.46
2019-02-27T13:50:29.025Z,100680.59
2019-02-27T13:52:56.267Z,100668.24
2019-02-27T13:55:23.372Z,100667.30
2019-02-27T13:57:50.399Z,100668.97
2019-02-27T14:00:20.626Z,100662.94
2019-02-27T14:02:46.117Z,100657.36
2019-02-27T14:05:13.366Z,100652.63
2019-02-27T14:07:40.667Z,100648.76
2019-02-27T14:10:07.595Z,100635.09
2019-02-27T14:12:36.378Z,100634.70
2019-02-27T14:15:03.353Z,100622.35
2019-02-27T14:17:31.967Z,100615.59
2019-02-27T14:19:58.860Z,100613.13
2019-02-27T14:22:26.856Z,100603.83
2019-02-27T14:24:54.830Z,100602.25
2019-02-27T14:27:22.911Z,100597.58
2019-02-27T14:29:50.166Z,100590.79
2019-02-27T14:32:17.105Z,100583.50
2019-02-27T14:34:44.028Z,100579.99
2019-02-27T14:37:11.094Z,100578.28
2019-02-27T14:39:38.347Z,100567.98
2019-02-27T14:42:06.981Z,100559.51
2019-02-27T14:44:33.971Z,100561.31
2019-02-27T14:47:01.001Z,100557.11
2019-02-27T14:49:30.252Z,100558.84
2019-02-27T14:51:57.221Z,100557.27
2019-02-27T14:54:26.081Z,100558.58
2019-02-27T14:56:53.518Z,100558.91
2019-02-27T14:59:20.748Z,100559.73
2019-02-27T15:01:49.197Z,100554.22
2019-02-27T15:04:16.690Z,100543.58
2019-02-27T15:06:43.700Z,100547.78
2019-02-27T15:09:10.788Z,100549.89
2019-02-27T15:11:38.228Z,100542.70
2019-02-27T15:14:05.476Z,100536.63
2019-02-27T15:16:32.692Z,100534.46
2019-02-27T15:19:05.841Z,100533.91
2019-02-27T15:21:43.937Z,100523.62
2019-02-27T15:24:25.550Z,100522.05
2019-02-27T15:27:01.793Z,100516.61
2019-02-27T15:29:46.975Z,100510.30
2019-02-27T15:32:14.344Z,100499.05
2019-02-27T15:34:42.707Z,100504.10
2019-02-27T15:37:10.551Z,100493.77
2019-02-27T15:39:39.005Z,100495.34
2019-02-27T15:42:09.700Z,100496.12
2019-02-27T15:44:35.738Z,100490.61
2019-02-27T15:47:02.743Z,100489.40
2019-02-27T15:49:29.817Z,100483.00
2019-02-27T15:51:56.804Z,100482.97
2019-02-27T15:54:25.058Z,100477.06
2019-02-27T15:56:52.102Z,100465.22
2019-02-27T15:59:19.121Z,100459.31
2019-02-27T16:01:46.077Z,100458.52
2019-02-27T16:04:13.430Z,100454.30
2019-02-27T16:06:40.688Z,100449.63
2019-02-27T16:09:08.007Z,100452.62
2019-02-27T16:11:36.601Z,100447.08
2019-02-27T16:14:09.168Z,100447.56
2019-02-27T16:16:35.018Z,100444.22
2019-02-27T16:19:02.289Z,100445.96
2019-02-27T16:21:29.674Z,100440.42
2019-02-27T16:23:56.678Z,100437.00
2019-02-27T16:26:27.013Z,100439.56
2019-02-27T16:28:52.803Z,100433.13
2019-02-27T16:31:19.754Z,100431.30
2019-02-27T16:33:46.707Z,100433.75
2019-02-27T16:36:15.562Z,100435.84
2019-02-27T16:38:42.567Z,100432.87
2019-02-27T16:41:09.786Z,100425.25
2019-02-27T16:43:36.979Z,100415.52
2019-02-27T16:46:07.683Z,100413.45
2019-02-27T16:48:34.613Z,100416.89
2019-02-27T16:51:01.242Z,100418.23
2019-02-27T16:53:28.286Z,100420.44
2019-02-27T16:55:55.577Z,100414.56
2019-02-27T16:58:22.453Z,100418.90
2019-02-27T17:00:54.414Z,100423.26
2019-02-27T17:03:18.049Z,100414.86
2019-02-27T17:05:45.033Z,100416.17
2019-02-27T17:08:12.000Z,100417.45
2019-02-27T17:10:38.990Z,100411.94
2019-02-27T17:13:06.195Z,100408.10
2019-02-27T17:15:35.805Z,100400.46
2019-02-27T17:18:01.799Z,100404.36
2019-02-27T17:20:30.121Z,100396.87
2019-02-27T17:22:57.307Z,100392.31
2019-02-27T17:25:28.954Z,100396.21
2019-02-27T17:27:53.589Z,100092.56
2019-02-27T17:30:20.669Z,100389.94
2019-02-27T17:32:47.795Z,100390.00
2019-02-27T17:35:14.706Z,100381.55
2019-02-27T17:37:41.649Z,100380.72
2019-02-27T17:40:09.261Z,100386.77
2019-02-27T17:42:37.946Z,100385.39
2019-02-27T17:45:05.121Z,100381.06
2019-02-27T17:47:32.448Z,100383.97
2019-02-27T17:49:59.406Z,100375.28
2019-02-27T17:52:26.273Z,100379.73
2019-02-27T17:54:53.306Z,100378.14
2019-02-27T17:57:24.230Z,100370.55
2019-02-27T17:59:48.910Z,100367.72
2019-02-27T18:02:15.807Z,100369.53
2019-02-27T18:04:45.303Z,100366.58
2019-02-27T18:07:11.847Z,100365.75
2019-02-27T18:09:40.386Z,100362.36
2019-02-27T18:12:07.902Z,100359.46
2019-02-27T18:14:34.898Z,100357.00
2019-02-27T18:17:02.175Z,100354.47
2019-02-27T18:19:29.129Z,100354.08
2019-02-27T18:21:56.129Z,100348.12
2019-02-27T18:24:23.442Z,100341.75
2019-02-27T18:26:51.295Z,100348.17
2019-02-27T18:29:19.285Z,100339.73
2019-02-27T18:31:46.485Z,100335.11
2019-02-27T18:34:16.669Z,100332.13
2019-02-27T18:36:46.488Z,100328.82
2019-02-27T18:39:12.486Z,100319.88
2019-02-27T18:41:39.810Z,100318.66
2019-02-27T18:44:08.088Z,100307.26
2019-02-27T18:46:36.716Z,100306.05
2019-02-27T18:49:04.009Z,100306.11
2019-02-27T18:51:33.225Z,100301.13
2019-02-27T18:54:02.275Z,100296.95
2019-02-27T18:56:29.123Z,100299.55
2019-02-27T18:58:56.457Z,100298.31
2019-02-27T19:01:23.870Z,100292.38
2019-02-27T19:03:51.307Z,100287.34
2019-02-27T19:06:18.687Z,100286.95
2019-02-27T19:08:47.185Z,100281.02
2019-02-27T19:11:16.794Z,100278.50
2019-02-27T19:13:44.042Z,100272.63
2019-02-27T19:16:11.011Z,100268.91
2019-02-27T19:18:38.464Z,100264.31
2019-02-27T19:21:07.020Z,100262.62
2019-02-27T19:23:34.327Z,100255.44
2019-02-27T19:26:01.852Z,100249.06
2019-02-27T19:28:28.898Z,100249.92
2019-02-27T19:30:56.185Z,100247.39
2019-02-27T19:33:23.138Z,100244.88
2019-02-27T19:35:50.110Z,100247.50
2019-02-27T19:38:17.151Z,100239.03
2019-02-27T19:40:45.607Z,100243.28
2019-02-27T19:43:12.724Z,100235.69
2019-02-27T19:45:42.278Z,100236.55
2019-02-27T19:48:10.507Z,100231.47
2019-02-27T19:50:46.237Z,100231.03
2019-02-27T19:53:13.896Z,100226.41
2019-02-27T19:55:40.909Z,100228.98
2019-02-27T19:58:09.052Z,100217.16
2019-02-27T20:03:22.503Z,100214.24
2019-02-27T20:05:58.847Z,100206.22
2019-02-27T20:08:32.972Z,100202.84
2019-02-27T20:11:02.375Z,100198.17
2019-02-27T20:13:38.401Z,100192.63
2019-02-27T20:16:05.756Z,100183.33
2019-02-27T20:18:32.868Z,100174.55
2019-02-27T20:21:00.233Z,100173.39
2019-02-27T20:23:30.736Z,100166.70
2019-02-27T20:26:00.174Z,100165.87
2019-02-27T20:28:29.050Z,100158.22
2019-02-27T20:31:00.802Z,100155.23
2019-02-27T20:33:37.203Z,100150.97
2019-02-27T20:36:11.955Z,100140.38
2019-02-27T20:38:39.497Z,100137.00
2019-02-27T20:41:06.855Z,100136.15
2019-02-27T20:43:34.318Z,100130.24
2019-02-27T20:46:03.686Z,100126.88
2019-02-27T20:48:36.136Z,100125.19
2019-02-27T20:51:08.662Z,100121.41
2019-02-27T20:53:55.437Z,100129.44
2019-02-27T20:56:26.935Z,100121.83
2019-02-27T20:58:59.386Z,100112.98
2019-02-27T21:01:36.858Z,100101.97
2019-02-27T21:04:22.966Z,100095.65
2019-02-27T21:06:50.740Z,100094.37
2019-02-27T21:09:19.853Z,100088.42
2019-02-27T21:11:52.808Z,100076.56
2019-02-27T21:14:20.531Z,100076.98
2019-02-27T21:16:48.573Z,100075.28
2019-02-27T21:19:15.560Z,100059.20
2019-02-27T21:21:43.727Z,100061.36
2019-02-27T21:27:12.054Z,100053.38
2019-02-27T21:29:49.381Z,100045.84
2019-02-27T21:32:16.654Z,100036.96
2019-02-27T21:34:46.271Z,100033.53
2019-02-27T21:40:03.716Z,100021.64
2019-02-27T21:42:35.451Z,100020.46
2019-02-27T21:47:52.924Z,100021.36
2019-02-27T21:59:45.294Z,100012.94
2019-02-27T22:16:10.564Z,99997.61
2019-02-27T22:32:47.477Z,99989.44
2019-02-27T22:35:21.682Z,99977.19
2019-02-27T22:37:54.999Z,99977.14
2019-02-27T22:40:28.313Z,99967.44
2019-02-27T22:42:55.423Z,99967.47
2019-02-27T22:45:29.162Z,99959.42
2019-02-27T22:48:06.846Z,99949.26
2019-02-27T22:59:17.097Z,99926.09
2019-02-27T23:01:51.650Z,99923.60
2019-02-27T23:04:23.537Z,99916.45
2019-02-27T23:06:53.537Z,99914.77
2019-02-27T23:09:22.214Z,99905.05
2019-02-27T23:11:50.913Z,99897.45
2019-02-27T23:17:10.984Z,99888.61
2019-02-27T23:19:48.734Z,99883.97
2019-02-27T23:25:09.273Z,99875.19
2019-02-27T23:27:52.571Z,99876.89
2019-02-27T23:30:30.713Z,99876.91
2019-02-27T23:33:13.664Z,99878.63
2019-02-27T23:35:50.206Z,99881.58
2019-02-27T23:38:17.312Z,99876.99
2019-02-27T23:40:49.143Z,99874.03
2019-02-27T23:46:08.256Z,99668.28
2019-02-27T23:48:42.059Z,99862.68
2019-02-27T23:51:27.576Z,99860.19
2019-02-27T23:54:05.305Z,99852.59
2019-02-27T23:56:34.309Z,99847.97
2019-02-27T23:59:02.564Z,99844.59
